createdAt,value
2023-03-12T00:01:57.211Z,101053.88
2023-03-12T00:04:23.853Z,101047.34
2023-03-12T00:06:50.351Z,101060.09
2023-03-12T00:09:16.863Z,101050.34
2023-03-12T00:11:43.617Z,101041.38
2023-03-12T00:14:10.201Z,101046.00
2023-03-12T00:16:36.754Z,101048.97
2023-03-12T00:19:03.295Z,101048.97
2023-03-12T00:21:29.808Z,101039.19
2023-03-12T00:23:56.828Z,101048.16
2023-03-12T00:26:23.419Z,101035.66
2023-03-12T00:28:50.932Z,101024.78
2023-03-12T00:31:24.346Z,101032.94
2023-03-12T00:33:50.910Z,101026.69
2023-03-12T00:36:19.689Z,101033.19
2023-03-12T00:38:46.266Z,101035.09
2023-03-12T00:41:13.045Z,101026.41
2023-03-12T00:43:39.600Z,101022.59
2023-03-12T00:46:06.147Z,101009.84
2023-03-12T00:48:32.835Z,101013.09
2023-03-12T00:50:59.314Z,101015.81
2023-03-12T00:53:25.848Z,101016.91
2023-03-12T00:55:52.512Z,101025.84
2023-03-12T00:58:19.032Z,101019.63
2023-03-12T01:00:45.716Z,101027.75
2023-03-12T01:03:12.285Z,101023.66
2023-03-12T01:05:40.742Z,101021.81
2023-03-12T01:08:09.307Z,101025.56
2023-03-12T01:10:37.752Z,101020.16
2023-03-12T01:13:04.335Z,101010.09
2023-03-12T01:15:30.979Z,101011.19
2023-03-12T01:17:57.465Z,100998.69
2023-03-12T01:20:24.655Z,100989.75
2023-03-12T01:22:52.257Z,100979.94
2023-03-12T01:25:19.510Z,100975.59
2023-03-12T01:27:46.336Z,100972.88
2023-03-12T01:30:13.579Z,100972.06
2023-03-12T01:32:40.169Z,100965.00
2023-03-12T01:35:07.205Z,100976.69
2023-03-12T01:37:33.804Z,100970.69
2023-03-12T01:40:00.854Z,100970.44
2023-03-12T01:42:27.609Z,100965.25
2023-03-12T01:44:56.017Z,100959.84
2023-03-12T01:47:23.074Z,100959.31
2023-03-12T01:49:51.785Z,100959.03
2023-03-12T01:52:25.060Z,100962.03
2023-03-12T01:55:02.451Z,100960.41
2023-03-12T01:57:42.109Z,100956.84
2023-03-12T02:00:13.918Z,100952.50
2023-03-12T02:02:42.362Z,100935.69
2023-03-12T02:05:20.339Z,100932.97
2023-03-12T02:07:47.020Z,100928.34
2023-03-12T02:10:13.696Z,100919.38
2023-03-12T02:12:40.279Z,100913.13
2023-03-12T02:15:07.668Z,100901.44
2023-03-12T02:17:35.870Z,100898.72
2023-03-12T02:20:25.193Z,100902.25
2023-03-12T02:23:03.315Z,100893.56
2023-03-12T02:25:42.568Z,100895.47
2023-03-12T02:28:14.168Z,100905.53
2023-03-12T02:30:44.681Z,100910.16
2023-03-12T02:33:11.762Z,100904.72
2023-03-12T02:35:38.847Z,100905.78
2023-03-12T02:38:40.472Z,100897.63
2023-03-12T02:41:17.958Z,100903.34
2023-03-12T02:43:49.293Z,100896.81
2023-03-12T02:46:16.539Z,100901.72
2023-03-12T02:48:43.715Z,100894.41
2023-03-12T02:51:10.485Z,100884.59
2023-03-12T02:53:37.201Z,100871.03
2023-03-12T02:56:04.332Z,100874.59
2023-03-12T02:58:31.061Z,100859.34
2023-03-12T03:00:57.637Z,100852.31
2023-03-12T03:03:24.250Z,100840.63
2023-03-12T03:05:51.851Z,100833.59
2023-03-12T03:08:18.450Z,100824.34
2023-03-12T03:10:44.943Z,100835.19
2023-03-12T03:13:11.456Z,100828.97
2023-03-12T03:15:38.911Z,100811.03
2023-03-12T03:18:05.856Z,100811.03
2023-03-12T03:20:32.637Z,100806.69
2023-03-12T03:22:59.266Z,100804.78
2023-03-12T03:25:26.093Z,100810.22
2023-03-12T03:27:52.695Z,100814.84
2023-03-12T03:30:21.303Z,100810.22
2023-03-12T03:32:49.038Z,100807.50
2023-03-12T03:35:16.159Z,100799.63
2023-03-12T03:37:42.768Z,100806.16
2023-03-12T03:40:12.225Z,100801.53
2023-03-12T03:42:39.580Z,100800.97
2023-03-12T03:45:07.868Z,100799.34
2023-03-12T03:47:34.387Z,100794.75
2023-03-12T03:50:00.958Z,100812.94
2023-03-12T03:52:27.465Z,100798.28
2023-03-12T03:54:54.291Z,100810.50
2023-03-12T03:57:20.765Z,100801.53
2023-03-12T03:59:47.286Z,100800.72
2023-03-12T04:02:13.856Z,100793.38
2023-03-12T04:04:40.382Z,100786.31
2023-03-12T04:07:06.937Z,100794.47
2023-03-12T04:09:33.610Z,100789.03
2023-03-12T04:12:00.130Z,100792.03
2023-03-12T04:14:26.592Z,100789.31
2023-03-12T04:16:53.067Z,100790.38
2023-03-12T04:19:19.687Z,100767.06
2023-03-12T04:21:46.150Z,100747.53
2023-03-12T04:24:16.525Z,100743.72
2023-03-12T04:26:43.057Z,100735.88
2023-03-12T04:29:09.883Z,100725.25
2023-03-12T04:31:36.488Z,100711.69
2023-03-12T04:34:03.116Z,100711.16
2023-03-12T04:36:30.014Z,100705.75
2023-03-12T04:38:56.715Z,100708.44
2023-03-12T04:41:23.300Z,100709.50
2023-03-12T04:43:49.907Z,100704.91
2023-03-12T04:46:16.480Z,100725.00
2023-03-12T04:48:43.088Z,100719.56
2023-03-12T04:51:09.650Z,100713.31
2023-03-12T04:53:36.465Z,100721.47
2023-03-12T04:56:03.132Z,100716.03
2023-03-12T04:58:29.636Z,100722.56
2023-03-12T05:00:56.383Z,100716.03
2023-03-12T05:03:23.154Z,100704.91
2023-03-12T05:05:49.724Z,100704.91
2023-03-12T05:08:16.280Z,100713.88
2023-03-12T05:10:45.485Z,100709.78
2023-03-12T05:13:23.022Z,100706.50
2023-03-12T05:15:50.698Z,100711.16
2023-03-12T05:18:17.769Z,100713.84
2023-03-12T05:20:44.219Z,100716.28
2023-03-12T05:23:10.769Z,100714.94
2023-03-12T05:25:41.426Z,100711.13
2023-03-12T05:28:08.229Z,100708.41
2023-03-12T05:30:34.822Z,100715.75
2023-03-12T05:33:01.358Z,100719.25
2023-03-12T05:35:27.858Z,100719.56
2023-03-12T05:37:54.402Z,100716.84
2023-03-12T05:40:21.065Z,100712.22
2023-03-12T05:42:47.652Z,100714.13
2023-03-12T05:45:14.250Z,100713.03
2023-03-12T05:47:40.750Z,100710.31
2023-03-12T05:50:08.134Z,100707.31
2023-03-12T05:52:34.611Z,100706.25
2023-03-12T05:55:01.140Z,100704.59
2023-03-12T05:57:27.700Z,100715.19
2023-03-12T05:59:54.219Z,100706.25
2023-03-12T06:02:20.825Z,100698.91
2023-03-12T06:04:47.352Z,100693.47
2023-03-12T06:07:13.864Z,100695.09
2023-03-12T06:09:40.416Z,100704.88
2023-03-12T06:12:06.998Z,100701.09
2023-03-12T06:14:33.517Z,100683.69
2023-03-12T06:17:00.075Z,100689.94
2023-03-12T06:19:26.615Z,100691.03
2023-03-12T06:21:53.082Z,100682.06
2023-03-12T06:24:19.620Z,100670.38
2023-03-12T06:26:46.404Z,100664.69
2023-03-12T06:29:13.039Z,100669.31
2023-03-12T06:31:40.304Z,100676.34
2023-03-12T06:34:06.846Z,100663.59
2023-03-12T06:36:33.416Z,100668.22
2023-03-12T06:39:00.034Z,100666.59
2023-03-12T06:41:26.638Z,100664.69
2023-03-12T06:43:53.265Z,100663.88
2023-03-12T06:46:21.883Z,100662.78
2023-03-12T06:48:48.922Z,100661.97
2023-03-12T06:51:17.450Z,100663.88
2023-03-12T06:53:45.380Z,100656.81
2023-03-12T06:56:12.867Z,100658.72
2023-03-12T06:58:39.403Z,100664.94
2023-03-12T07:01:06.538Z,100656.28
2023-03-12T07:03:33.589Z,100653.56
2023-03-12T07:06:00.508Z,100653.28
2023-03-12T07:08:30.989Z,100662.22
2023-03-12T07:11:01.168Z,100673.94
2023-03-12T07:13:27.948Z,100670.94
2023-03-12T07:15:54.503Z,100662.22
2023-03-12T07:18:21.178Z,100664.94
2023-03-12T07:20:47.817Z,100658.72
2023-03-12T07:23:14.539Z,100662.22
2023-03-12T07:25:43.057Z,100664.94
2023-03-12T07:28:10.668Z,100664.69
2023-03-12T07:30:37.805Z,100666.59
2023-03-12T07:33:06.385Z,100670.38
2023-03-12T07:35:33.541Z,100670.13
2023-03-12T07:38:01.536Z,100665.78
2023-03-12T07:40:28.366Z,100683.94
2023-03-12T07:42:54.965Z,100675.00
2023-03-12T07:45:21.895Z,100678.53
2023-03-12T07:47:49.583Z,100690.22
2023-03-12T07:50:18.284Z,100687.22
2023-03-12T07:52:45.816Z,100679.88
2023-03-12T07:55:13.107Z,100683.97
2023-03-12T07:57:39.757Z,100688.56
2023-03-12T08:00:07.986Z,100679.34
2023-03-12T08:02:35.001Z,100690.19
2023-03-12T08:05:01.919Z,100698.34
2023-03-12T08:07:32.588Z,100692.91
2023-03-12T08:10:00.288Z,100689.38
2023-03-12T08:12:27.738Z,100691.81
2023-03-12T08:14:55.044Z,100700.25
2023-03-12T08:17:21.794Z,100702.97
2023-03-12T08:19:48.813Z,100701.31
2023-03-12T08:22:15.713Z,100714.91
2023-03-12T08:24:42.262Z,100720.31
2023-03-12T08:27:09.458Z,100713.03
2023-03-12T08:29:35.956Z,100724.41
2023-03-12T08:32:05.325Z,100712.44
2023-03-12T08:34:35.618Z,100724.97
2023-03-12T08:37:03.082Z,100727.66
2023-03-12T08:39:30.169Z,100725.22
2023-03-12T08:41:56.713Z,100724.97
2023-03-12T08:44:24.068Z,100712.44
2023-03-12T08:46:53.887Z,100724.16
2023-03-12T08:49:21.318Z,100716.00
2023-03-12T08:51:48.409Z,100711.63
2023-03-12T08:54:15.106Z,100715.16
2023-03-12T08:56:45.968Z,100716.00
2023-03-12T08:59:13.550Z,100718.72
2023-03-12T09:01:43.569Z,100711.63
2023-03-12T09:04:10.879Z,100716.25
2023-03-12T09:06:38.493Z,100724.41
2023-03-12T09:09:05.361Z,100720.34
2023-03-12T09:11:33.925Z,100740.69
2023-03-12T09:14:42.668Z,100735.78
2023-03-12T09:16:48.855Z,100728.75
2023-03-12T09:19:16.025Z,100735.78
2023-03-12T09:21:42.657Z,100732.56
2023-03-12T09:24:11.280Z,100743.13
2023-03-12T09:26:37.867Z,100739.31
2023-03-12T09:29:04.422Z,100743.94
2023-03-12T09:31:31.080Z,100742.03
2023-03-12T09:33:57.603Z,100746.66
2023-03-12T09:36:24.179Z,100756.41
2023-03-12T09:38:50.709Z,100749.09
2023-03-12T09:41:21.670Z,100753.72
2023-03-12T09:44:04.819Z,100757.22
2023-03-12T09:46:34.474Z,100756.41
2023-03-12T09:49:06.345Z,100754.25
2023-03-12T09:51:41.174Z,100756.16
2023-03-12T09:54:30.245Z,100758.59
2023-03-12T09:57:02.035Z,100758.59
2023-03-12T09:59:29.081Z,100756.69
2023-03-12T10:02:03.730Z,100751.25
2023-03-12T10:04:58.108Z,100757.78
2023-03-12T10:07:29.058Z,100764.84
2023-03-12T10:10:22.786Z,100760.22
2023-03-12T10:13:08.184Z,100757.78
2023-03-12T10:16:19.481Z,100758.59
2023-03-12T10:18:54.994Z,100761.31
2023-03-12T10:21:52.110Z,100759.69
2023-03-12T10:24:33.972Z,100746.91
2023-03-12T10:27:02.012Z,100763.22
2023-03-12T10:29:44.410Z,100750.44
2023-03-12T10:32:11.327Z,100755.63
2023-03-12T10:34:49.092Z,100752.63
2023-03-12T10:37:24.637Z,100751.81
2023-03-12T10:39:53.138Z,100755.34
2023-03-12T10:42:25.188Z,100759.66
2023-03-12T10:44:56.215Z,100767.56
2023-03-12T10:47:34.736Z,100773.81
2023-03-12T10:50:21.054Z,100771.34
2023-03-12T10:52:50.427Z,100775.16
2023-03-12T10:55:29.737Z,100770.22
2023-03-12T10:57:56.914Z,100779.75
2023-03-12T11:00:29.236Z,100786.00
2023-03-12T11:03:03.519Z,100784.88
2023-03-12T11:05:48.854Z,100792.78
2023-03-12T11:08:30.400Z,100794.69
2023-03-12T11:11:00.441Z,100786.53
2023-03-12T11:13:28.881Z,100791.69
2023-03-12T11:15:58.068Z,100783.28
2023-03-12T11:18:27.381Z,100778.38
2023-03-12T11:21:12.536Z,100774.56
2023-03-12T11:23:43.835Z,100774.28
2023-03-12T11:26:17.245Z,100782.97
2023-03-12T11:28:47.761Z,100783.78
2023-03-12T11:31:19.248Z,100787.34
2023-03-12T11:33:45.848Z,100780.81
2023-03-12T11:36:29.035Z,100779.69
2023-03-12T11:39:17.739Z,100768.03
2023-03-12T11:42:08.201Z,100769.41
2023-03-12T11:44:40.086Z,100773.75
2023-03-12T11:47:37.076Z,100765.31
2023-03-12T11:50:13.308Z,100757.69
2023-03-12T11:52:53.607Z,100773.19
2023-03-12T11:55:38.929Z,100766.66
2023-03-12T11:58:24.696Z,100770.47
2023-03-12T12:01:09.970Z,100762.34
2023-03-12T12:03:51.804Z,100759.31
2023-03-12T12:06:57.909Z,100759.31
2023-03-12T12:09:30.410Z,100760.94
2023-03-12T12:12:17.878Z,100762.03
2023-03-12T12:14:56.448Z,100779.16
2023-03-12T12:17:38.169Z,100769.09
2023-03-12T12:20:16.867Z,100762.59
2023-03-12T12:22:53.436Z,100778.09
2023-03-12T12:25:57.912Z,100757.16
2023-03-12T12:28:54.224Z,100747.09
2023-03-12T12:31:38.654Z,100744.91
2023-03-12T12:34:14.932Z,100740.25
2023-03-12T12:36:47.382Z,100719.38
2023-03-12T12:39:44.124Z,100734.84
2023-03-12T12:42:21.140Z,100726.41
2023-03-12T12:44:52.077Z,100723.41
2023-03-12T12:47:48.055Z,100741.63
2023-03-12T12:50:22.651Z,100716.06
2023-03-12T12:52:57.411Z,100702.47
2023-03-12T12:55:37.718Z,100695.16
2023-03-12T12:58:37.920Z,100690.53
2023-03-12T13:01:04.808Z,100695.97
2023-03-12T13:03:31.587Z,100692.16
2023-03-12T13:06:03.732Z,100710.38
2023-03-12T13:08:39.590Z,100701.66
2023-03-12T13:11:23.711Z,100705.19
2023-03-12T13:14:11.436Z,100717.97
2023-03-12T13:16:39.533Z,100705.19
2023-03-12T13:19:08.760Z,100706.81
2023-03-12T13:21:38.244Z,100706.81
2023-03-12T13:24:14.137Z,100709.22
2023-03-12T13:26:52.235Z,100726.91
2023-03-12T13:29:24.016Z,100726.09
2023-03-12T13:31:50.557Z,100710.31
2023-03-12T13:34:17.366Z,100712.44
2023-03-12T13:36:50.567Z,100719.25
2023-03-12T13:39:17.264Z,100720.88
2023-03-12T13:41:54.678Z,100736.63
2023-03-12T13:44:23.951Z,100736.06
2023-03-12T13:47:12.095Z,100743.94
2023-03-12T13:50:06.528Z,100742.56
2023-03-12T13:52:47.593Z,100752.63
2023-03-12T13:55:14.076Z,100751.53
2023-03-12T13:57:46.980Z,100778.47
2023-03-12T14:00:25.563Z,100770.03
2023-03-12T14:02:57.380Z,100762.66
2023-03-12T14:05:24.591Z,100755.31
2023-03-12T14:08:33.686Z,100749.63
2023-03-12T14:11:22.076Z,100768.38
2023-03-12T14:14:13.655Z,100754.75
2023-03-12T14:16:50.493Z,100758.28
2023-03-12T14:19:27.574Z,100760.75
2023-03-12T14:21:57.107Z,100745.25
2023-03-12T14:24:38.464Z,100756.94
2023-03-12T14:27:11.461Z,100754.22
2023-03-12T14:29:52.016Z,100758.84
2023-03-12T14:32:28.421Z,100744.13
2023-03-12T14:35:13.585Z,100739.81
2023-03-12T14:37:49.176Z,100742.78
2023-03-12T14:40:51.048Z,100748.50
2023-03-12T14:43:35.054Z,100738.44
2023-03-12T14:46:04.989Z,100741.97
2023-03-12T14:48:34.615Z,100743.59
2023-03-12T14:51:03.093Z,100731.63
2023-03-12T14:53:39.524Z,100737.88
2023-03-12T14:56:32.415Z,100749.56
2023-03-12T14:59:01.668Z,100744.13
2023-03-12T15:01:31.864Z,100737.88
2023-03-12T15:04:01.628Z,100744.94
2023-03-12T15:06:30.215Z,100728.63
2023-03-12T15:08:57.984Z,100731.09
2023-03-12T15:11:27.973Z,100732.97
2023-03-12T15:14:01.062Z,100726.72
2023-03-12T15:16:28.170Z,100724.00
2023-03-12T15:18:55.009Z,100729.97
2023-03-12T15:21:22.115Z,100724.00
2023-03-12T15:23:49.154Z,100727.53
2023-03-12T15:26:21.734Z,100716.66
2023-03-12T15:29:17.060Z,100700.31
2023-03-12T15:31:46.442Z,100707.69
2023-03-12T15:34:26.042Z,100694.06
2023-03-12T15:36:54.803Z,100700.31
2023-03-12T15:39:38.321Z,100694.88
2023-03-12T15:42:10.101Z,100696.00
2023-03-12T15:44:58.705Z,100701.44
2023-03-12T15:47:31.243Z,100705.50
2023-03-12T15:50:02.399Z,100718.28
2023-03-12T15:52:32.811Z,100719.63
2023-03-12T15:55:14.610Z,100723.19
2023-03-12T15:57:47.100Z,100718.81
2023-03-12T16:00:43.004Z,100725.06
2023-03-12T16:03:18.332Z,100718.81
2023-03-12T16:05:45.389Z,100710.38
2023-03-12T16:08:17.937Z,100715.00
2023-03-12T16:10:46.319Z,100715.81
2023-03-12T16:13:15.174Z,100723.44
2023-03-12T16:15:41.997Z,100716.09
2023-03-12T16:18:17.261Z,100707.13
2023-03-12T16:20:44.620Z,100707.94
2023-03-12T16:23:12.078Z,100696.25
2023-03-12T16:28:07.124Z,100707.94
2023-03-12T16:30:36.211Z,100715.00
2023-03-12T16:33:08.759Z,100713.38
2023-03-12T16:35:35.830Z,100718.00
2023-03-12T16:40:34.010Z,100712.56
2023-03-12T16:43:03.831Z,100696.53
2023-03-12T16:45:33.713Z,100716.66
2023-03-12T16:48:02.547Z,100716.38
2023-03-12T16:52:55.753Z,100719.38
2023-03-12T16:55:30.271Z,100708.50
2023-03-12T16:58:01.261Z,100711.50
2023-03-12T17:00:30.456Z,100699.00
2023-03-12T17:02:59.030Z,100695.19
2023-03-12T17:05:28.178Z,100690.84
2023-03-12T17:07:55.879Z,100683.19
2023-03-12T17:10:23.254Z,100691.66
2023-03-12T17:12:50.744Z,100704.44
2023-03-12T17:15:19.968Z,100704.44
2023-03-12T17:17:47.477Z,100700.06
2023-03-12T17:20:16.185Z,100691.09
2023-03-12T17:22:43.435Z,100680.22
2023-03-12T17:25:24.881Z,100679.41
2023-03-12T17:27:52.447Z,100700.06
2023-03-12T17:30:19.399Z,100695.75
2023-03-12T17:32:45.968Z,100677.50
2023-03-12T17:35:12.703Z,100679.41
2023-03-12T17:37:39.441Z,100684.88
2023-03-12T17:40:09.936Z,100684.88
2023-03-12T17:42:37.183Z,100693.81
2023-03-12T17:45:06.392Z,100693.31
2023-03-12T17:47:32.933Z,100697.13
2023-03-12T17:49:59.476Z,100692.78
2023-03-12T17:52:26.134Z,100683.53
2023-03-12T17:54:52.934Z,100681.63
2023-03-12T17:57:19.511Z,100672.66
2023-03-12T17:59:46.099Z,100699.03
2023-03-12T18:02:14.346Z,100671.81
2023-03-12T18:04:40.925Z,100696.31
2023-03-12T18:07:07.503Z,100689.25
2023-03-12T18:09:34.165Z,100697.41
2023-03-12T18:12:00.682Z,100683.53
2023-03-12T18:14:27.574Z,100697.94
2023-03-12T18:16:54.130Z,100682.44
2023-03-12T18:19:20.964Z,100688.97
2023-03-12T18:21:47.506Z,100689.78
2023-03-12T18:24:14.858Z,100690.59
2023-03-12T18:26:41.814Z,100691.69
2023-03-12T18:29:08.352Z,100676.19
2023-03-12T18:31:34.899Z,100677.25
2023-03-12T18:34:01.466Z,100679.16
2023-03-12T18:36:27.979Z,100674.84
2023-03-12T18:38:54.483Z,100659.31
2023-03-12T18:41:21.009Z,100661.53
2023-03-12T18:43:47.577Z,100664.25
2023-03-12T18:46:14.195Z,100666.13
2023-03-12T18:48:43.625Z,100663.41
2023-03-12T18:51:10.654Z,100664.25
2023-03-12T18:53:37.146Z,100678.66
2023-03-12T18:56:03.952Z,100659.63
2023-03-12T18:58:30.488Z,100665.88
2023-03-12T19:00:58.862Z,100666.13
2023-03-12T19:03:26.721Z,100663.41
2023-03-12T19:06:22.712Z,100659.88
2023-03-12T19:08:49.263Z,100655.56
2023-03-12T19:11:16.813Z,100650.13
2023-03-12T19:13:43.887Z,100646.59
2023-03-12T19:16:12.494Z,100649.31
2023-03-12T19:18:39.662Z,100647.69
2023-03-12T19:21:09.384Z,100650.41
2023-03-12T19:23:36.508Z,100643.31
2023-03-12T19:26:04.064Z,100646.03
2023-03-12T19:28:31.325Z,100644.13
2023-03-12T19:31:02.723Z,100630.84
2023-03-12T19:33:30.186Z,100630.53
2023-03-12T19:35:57.774Z,100634.34
2023-03-12T19:38:24.782Z,100628.91
2023-03-12T19:40:55.307Z,100618.84
2023-03-12T19:43:22.610Z,100617.25
2023-03-12T19:45:49.332Z,100618.03
2023-03-12T19:48:16.628Z,100613.41
2023-03-12T19:50:45.041Z,100606.34
2023-03-12T19:53:12.529Z,100600.13
2023-03-12T19:55:39.224Z,100598.19
2023-03-12T19:58:05.905Z,100595.78
2023-03-12T20:00:32.399Z,100591.97
2023-03-12T20:02:59.693Z,100585.72
2023-03-12T20:05:26.302Z,100585.72
2023-03-12T20:07:52.884Z,100576.22
2023-03-12T20:10:19.518Z,100574.28
2023-03-12T20:12:46.867Z,100565.06
2023-03-12T20:15:13.556Z,100574.53
2023-03-12T20:17:40.121Z,100570.50
2023-03-12T20:20:08.707Z,100556.91
2023-03-12T20:22:37.912Z,100547.91
2023-03-12T20:25:06.542Z,100555.81
2023-03-12T20:27:34.274Z,100537.88
2023-03-12T20:30:00.965Z,100541.41
2023-03-12T20:32:28.739Z,100526.16
2023-03-12T20:34:55.426Z,100525.34
2023-03-12T20:37:22.147Z,100522.63
2023-03-12T20:39:48.676Z,100524.03
2023-03-12T20:42:15.188Z,100522.41
2023-03-12T20:44:41.814Z,100519.69
2023-03-12T20:47:08.330Z,100510.72
2023-03-12T20:49:34.850Z,100503.66
2023-03-12T20:52:01.751Z,100508.00
2023-03-12T20:54:28.317Z,100511.00
2023-03-12T20:56:54.850Z,100494.16
2023-03-12T20:59:21.382Z,100502.31
2023-03-12T21:01:47.887Z,100503.41
2023-03-12T21:04:14.826Z,100488.22
2023-03-12T21:06:41.478Z,100477.34
2023-03-12T21:09:08.072Z,100478.16
2023-03-12T21:11:34.968Z,100477.03
2023-03-12T21:14:01.576Z,100470.81
2023-03-12T21:16:28.305Z,100460.22
2023-03-12T21:18:56.468Z,100464.00
2023-03-12T21:21:23.078Z,100450.72
2023-03-12T21:23:49.691Z,100452.63
2023-03-12T21:26:18.230Z,100447.19
2023-03-12T21:28:45.625Z,100448.00
2023-03-12T21:31:15.255Z,100445.28
2023-03-12T21:33:42.519Z,100439.31
2023-03-12T21:36:11.667Z,100433.06
2023-03-12T21:38:39.296Z,100434.16
2023-03-12T21:41:10.775Z,100414.34
2023-03-12T21:43:37.562Z,100431.47
2023-03-12T21:46:12.568Z,100415.72
2023-03-12T21:48:39.909Z,100412.19
2023-03-12T21:51:08.783Z,100405.66
2023-03-12T21:53:36.186Z,100406.75
2023-03-12T21:56:04.766Z,100403.50
2023-03-12T21:58:32.660Z,100387.19
2023-03-12T22:01:18.328Z,100382.88
2023-03-12T22:03:46.278Z,100377.44
2023-03-12T22:06:14.382Z,100375.81
2023-03-12T22:08:42.021Z,100368.47
2023-03-12T22:11:09.671Z,100369.84
2023-03-12T22:13:37.075Z,100365.22
2023-03-12T22:16:07.774Z,100362.00
2023-03-12T22:18:45.128Z,100362.78
2023-03-12T22:21:21.223Z,100360.06
2023-03-12T22:23:51.171Z,100354.94
2023-03-12T22:26:22.252Z,100347.88
2023-03-12T22:28:51.056Z,100339.72
2023-03-12T22:31:19.398Z,100337.00
2023-03-12T22:33:46.372Z,100326.44
2023-03-12T22:36:15.298Z,100316.34
2023-03-12T22:38:42.300Z,100312.03
2023-03-12T22:41:15.584Z,100309.59
2023-03-12T22:43:42.751Z,100294.38
2023-03-12T22:46:09.592Z,100286.53
2023-03-12T22:48:36.851Z,100272.66
2023-03-12T22:51:05.054Z,100266.72
2023-03-12T22:53:32.683Z,100257.44
2023-03-12T22:56:01.172Z,100264.00
2023-03-12T22:58:28.615Z,100256.09
2023-03-12T23:01:00.113Z,100255.28
2023-03-12T23:03:27.865Z,100243.31
2023-03-12T23:05:54.328Z,100238.47
2023-03-12T23:08:20.963Z,100225.69
2023-03-12T23:10:58.626Z,100230.03
2023-03-12T23:13:26.676Z,100220.25
2023-03-12T23:15:53.534Z,100198.53
2023-03-12T23:18:21.006Z,100200.72
2023-03-12T23:20:47.681Z,100199.91
2023-03-12T23:23:16.950Z,100178.16
2023-03-12T23:25:52.731Z,100177.38
2023-03-12T23:28:19.219Z,100172.19
2023-03-12T23:30:55.763Z,100167.06
2023-03-12T23:33:22.679Z,100165.47
2023-03-12T23:36:01.134Z,100156.22
2023-03-12T23:38:29.421Z,100149.44
2023-03-12T23:41:01.025Z,100139.97
2023-03-12T23:43:27.858Z,100122.88
2023-03-12T23:46:01.624Z,100110.91
2023-03-12T23:48:30.430Z,100116.63
2023-03-12T23:51:24.392Z,100106.84
2023-03-12T23:53:54.484Z,100099.50
2023-03-12T23:56:24.242Z,100091.38
2023-03-12T23:58:51.487Z,100075.38
